sensor_id;sensor_type;location;lat;lon;timestamp;temperature;humidity
69464;DHT22;56665;41.106;16.688;2022-10-03T00:02:07;19.87;67.95
69464;DHT22;56665;41.106;16.688;2022-10-03T00:25:42;19.73;67.97
69464;DHT22;56665;41.106;16.688;2022-10-03T00:29:15;19.70;67.98
69464;DHT22;56665;41.106;16.688;2022-10-03T00:42:49;19.67;67.79
69464;DHT22;56665;41.106;16.688;2022-10-03T00:46:42;19.64;67.83
69464;DHT22;56665;41.106;16.688;2022-10-03T00:53:48;19.57;67.86
69464;DHT22;56665;41.106;16.688;2022-10-03T00:57:15;19.56;67.74
69464;DHT22;56665;41.106;16.688;2022-10-03T01:00:30;19.50;67.78
69464;DHT22;56665;41.106;16.688;2022-10-03T01:03:45;19.50;68.35
69464;DHT22;56665;41.106;16.688;2022-10-03T01:10:14;19.50;68.06
69464;DHT22;56665;41.106;16.688;2022-10-03T01:13:58;19.51;68.38
69464;DHT22;56665;41.106;16.688;2022-10-03T01:20:32;19.45;68.56
69464;DHT22;56665;41.106;16.688;2022-10-03T01:24:01;19.40;68.46
69464;DHT22;56665;41.106;16.688;2022-10-03T01:27:17;19.33;68.81
69464;DHT22;56665;41.106;16.688;2022-10-03T01:30:37;19.27;69.11
69464;DHT22;56665;41.106;16.688;2022-10-03T01:33:49;19.27;69.27
69464;DHT22;56665;41.106;16.688;2022-10-03T01:40:26;19.25;69.87
69464;DHT22;56665;41.106;16.688;2022-10-03T01:43:53;19.26;70.01
69464;DHT22;56665;41.106;16.688;2022-10-03T01:54:11;19.25;70.57
69464;DHT22;56665;41.106;16.688;2022-10-03T02:00:52;19.27;72.12
69464;DHT22;56665;41.106;16.688;2022-10-03T02:04:10;19.36;72.56
69464;DHT22;56665;41.106;16.688;2022-10-03T02:07:46;19.39;73.20
69464;DHT22;56665;41.106;16.688;2022-10-03T02:10:59;19.47;73.41
69464;DHT22;56665;41.106;16.688;2022-10-03T02:14:21;19.53;73.67
69464;DHT22;56665;41.106;16.688;2022-10-03T02:17:49;19.57;73.87
69464;DHT22;56665;41.106;16.688;2022-10-03T02:24:27;19.64;74.08
69464;DHT22;56665;41.106;16.688;2022-10-03T02:35:20;19.73;74.22
69464;DHT22;56665;41.106;16.688;2022-10-03T03:09:02;19.58;74.59
69464;DHT22;56665;41.106;16.688;2022-10-03T03:30:20;19.47;75.00
69464;DHT22;56665;41.106;16.688;2022-10-03T03:39:48;19.49;75.28
69464;DHT22;56665;41.106;16.688;2022-10-03T03:50:24;19.53;75.38
69464;DHT22;56665;41.106;16.688;2022-10-03T04:00:19;19.50;75.73
69464;DHT22;56665;41.106;16.688;2022-10-03T04:25:04;19.50;75.95
69464;DHT22;56665;41.106;16.688;2022-10-03T04:28:32;19.47;75.99
69464;DHT22;56665;41.106;16.688;2022-10-03T04:32:19;19.46;76.14
69464;DHT22;56665;41.106;16.688;2022-10-03T04:39:19;19.45;76.13
69464;DHT22;56665;41.106;16.688;2022-10-03T04:42:43;19.45;76.20
69464;DHT22;56665;41.106;16.688;2022-10-03T05:03:18;19.50;76.02
69464;DHT22;56665;41.106;16.688;2022-10-03T05:06:35;19.53;75.94
69464;DHT22;56665;41.106;16.688;2022-10-03T05:09:53;19.54;75.85
69464;DHT22;56665;41.106;16.688;2022-10-03T05:13:15;19.58;75.75
69464;DHT22;56665;41.106;16.688;2022-10-03T05:16:52;19.61;75.70
69464;DHT22;56665;41.106;16.688;2022-10-03T05:20:00;19.66;75.50
69464;DHT22;56665;41.106;16.688;2022-10-03T05:36:56;19.94;74.14
69464;DHT22;56665;41.106;16.688;2022-10-03T05:40:20;20.07;73.75
69464;DHT22;56665;41.106;16.688;2022-10-03T05:47:01;20.33;72.78
69464;DHT22;56665;41.106;16.688;2022-10-03T05:50:34;20.55;72.01
69464;DHT22;56665;41.106;16.688;2022-10-03T06:07:28;21.65;67.71
69464;DHT22;56665;41.106;16.688;2022-10-03T06:14:23;22.21;65.81
69464;DHT22;56665;41.106;16.688;2022-10-03T06:18:22;22.44;65.32
69464;DHT22;56665;41.106;16.688;2022-10-03T06:35:31;23.57;61.58
69464;DHT22;56665;41.106;16.688;2022-10-03T06:49:12;24.36;59.56
69464;DHT22;56665;41.106;16.688;2022-10-03T07:03:29;24.94;59.13
69464;DHT22;56665;41.106;16.688;2022-10-03T07:41:03;27.09;52.95
69464;DHT22;56665;41.106;16.688;2022-10-03T07:44:48;27.29;51.91
69464;DHT22;56665;41.106;16.688;2022-10-03T07:48:39;27.29;51.14
69464;DHT22;56665;41.106;16.688;2022-10-03T07:55:26;27.29;51.73
69464;DHT22;56665;41.106;16.688;2022-10-03T08:09:37;27.78;51.05
69464;DHT22;56665;41.106;16.688;2022-10-03T08:13:44;28.01;50.54
69464;DHT22;56665;41.106;16.688;2022-10-03T08:30:22;27.30;56.82
69464;DHT22;56665;41.106;16.688;2022-10-03T08:58:21;27.05;52.70
69464;DHT22;56665;41.106;16.688;2022-10-03T09:43:58;30.00;46.89
69464;DHT22;56665;41.106;16.688;2022-10-03T10:18:36;30.19;48.69
69464;DHT22;56665;41.106;16.688;2022-10-03T10:25:41;29.76;48.53
69464;DHT22;56665;41.106;16.688;2022-10-03T11:37:44;27.05;52.31
69464;DHT22;56665;41.106;16.688;2022-10-03T11:44:35;26.94;52.17
69464;DHT22;56665;41.106;16.688;2022-10-03T11:47:41;26.88;52.76
69464;DHT22;56665;41.106;16.688;2022-10-03T11:50:56;26.67;54.16
69464;DHT22;56665;41.106;16.688;2022-10-03T11:54:25;26.73;54.39
69464;DHT22;56665;41.106;16.688;2022-10-03T11:57:34;26.80;53.98
69464;DHT22;56665;41.106;16.688;2022-10-03T12:00:41;26.91;54.55
69464;DHT22;56665;41.106;16.688;2022-10-03T12:07:39;26.57;55.25
69464;DHT22;56665;41.106;16.688;2022-10-03T12:11:38;26.52;55.70
69464;DHT22;56665;41.106;16.688;2022-10-03T12:14:47;26.54;56.33
69464;DHT22;56665;41.106;16.688;2022-10-03T12:24:41;26.47;55.13
69464;DHT22;56665;41.106;16.688;2022-10-03T12:40:50;26.00;54.19
69464;DHT22;56665;41.106;16.688;2022-10-03T12:44:18;25.97;53.98
69464;DHT22;56665;41.106;16.688;2022-10-03T12:47:44;26.07;53.36
69464;DHT22;56665;41.106;16.688;2022-10-03T12:54:34;26.14;53.75
69464;DHT22;56665;41.106;16.688;2022-10-03T13:04:51;26.24;52.90
69464;DHT22;56665;41.106;16.688;2022-10-03T13:08:43;26.30;51.97
69464;DHT22;56665;41.106;16.688;2022-10-03T13:22:02;25.85;55.63
69464;DHT22;56665;41.106;16.688;2022-10-03T13:25:27;25.59;56.75
69464;DHT22;56665;41.106;16.688;2022-10-03T13:39:19;25.82;56.86
69464;DHT22;56665;41.106;16.688;2022-10-03T13:42:42;25.72;57.58
69464;DHT22;56665;41.106;16.688;2022-10-03T13:45:54;25.31;57.32
69464;DHT22;56665;41.106;16.688;2022-10-03T13:49:02;24.79;60.50
69464;DHT22;56665;41.106;16.688;2022-10-03T13:55:34;25.14;60.19
69464;DHT22;56665;41.106;16.688;2022-10-03T14:12:12;23.98;63.98
69464;DHT22;56665;41.106;16.688;2022-10-03T14:38:44;24.16;61.78
69464;DHT22;56665;41.106;16.688;2022-10-03T14:45:59;23.95;62.93
69464;DHT22;56665;41.106;16.688;2022-10-03T14:49:05;23.68;64.17
69464;DHT22;56665;41.106;16.688;2022-10-03T14:52:36;23.43;65.40
69464;DHT22;56665;41.106;16.688;2022-10-03T14:58:54;23.47;66.69
69464;DHT22;56665;41.106;16.688;2022-10-03T15:02:20;23.42;64.90
69464;DHT22;56665;41.106;16.688;2022-10-03T15:05:33;23.39;65.43
69464;DHT22;56665;41.106;16.688;2022-10-03T15:08:41;23.44;65.37
69464;DHT22;56665;41.106;16.688;2022-10-03T15:15:02;23.16;65.48
69464;DHT22;56665;41.106;16.688;2022-10-03T15:18:17;23.12;64.67
69464;DHT22;56665;41.106;16.688;2022-10-03T15:21:25;22.99;64.00
69464;DHT22;56665;41.106;16.688;2022-10-03T15:24:31;22.85;63.24
69464;DHT22;56665;41.106;16.688;2022-10-03T15:27:41;22.68;64.52
69464;DHT22;56665;41.106;16.688;2022-10-03T15:30:51;22.64;65.83
69464;DHT22;56665;41.106;16.688;2022-10-03T15:33:57;22.64;66.92
69464;DHT22;56665;41.106;16.688;2022-10-03T15:37:30;22.50;65.72
69464;DHT22;56665;41.106;16.688;2022-10-03T15:40:40;22.47;65.88
69464;DHT22;56665;41.106;16.688;2022-10-03T15:43:48;22.41;67.08
69464;DHT22;56665;41.106;16.688;2022-10-03T15:47:05;22.26;67.74
69464;DHT22;56665;41.106;16.688;2022-10-03T15:50:18;22.31;68.08
69464;DHT22;56665;41.106;16.688;2022-10-03T15:53:28;22.30;68.75
69464;DHT22;56665;41.106;16.688;2022-10-03T15:56:43;22.23;69.37
69464;DHT22;56665;41.106;16.688;2022-10-03T15:59:52;22.21;69.94
69464;DHT22;56665;41.106;16.688;2022-10-03T16:03:33;22.26;70.18
69464;DHT22;56665;41.106;16.688;2022-10-03T16:07:01;22.21;70.27
69464;DHT22;56665;41.106;16.688;2022-10-03T16:10:20;22.10;70.95
69464;DHT22;56665;41.106;16.688;2022-10-03T16:13:37;21.95;71.67
69464;DHT22;56665;41.106;16.688;2022-10-03T16:16:59;21.92;71.55
69464;DHT22;56665;41.106;16.688;2022-10-03T16:23:34;21.86;72.09
69464;DHT22;56665;41.106;16.688;2022-10-03T16:26:54;21.79;72.09
69464;DHT22;56665;41.106;16.688;2022-10-03T16:36:18;21.95;70.58
69464;DHT22;56665;41.106;16.688;2022-10-03T16:39:27;21.97;70.30
69464;DHT22;56665;41.106;16.688;2022-10-03T16:42:40;22.00;70.38
69464;DHT22;56665;41.106;16.688;2022-10-03T16:45:46;22.00;70.37
69464;DHT22;56665;41.106;16.688;2022-10-03T16:48:52;21.92;70.60
69464;DHT22;56665;41.106;16.688;2022-10-03T16:52:18;21.90;70.87
69464;DHT22;56665;41.106;16.688;2022-10-03T16:55:33;21.85;70.84
69464;DHT22;56665;41.106;16.688;2022-10-03T16:58:43;21.79;71.18
69464;DHT22;56665;41.106;16.688;2022-10-03T17:02:02;21.73;71.15
69464;DHT22;56665;41.106;16.688;2022-10-03T17:05:08;21.65;71.38
69464;DHT22;56665;41.106;16.688;2022-10-03T17:08:17;21.63;71.73
69464;DHT22;56665;41.106;16.688;2022-10-03T17:11:22;21.65;71.93
69464;DHT22;56665;41.106;16.688;2022-10-03T17:14:35;21.58;72.15
69464;DHT22;56665;41.106;16.688;2022-10-03T17:21:32;21.52;72.39
69464;DHT22;56665;41.106;16.688;2022-10-03T17:24:42;21.48;72.46
69464;DHT22;56665;41.106;16.688;2022-10-03T17:27:49;21.42;72.54
69464;DHT22;56665;41.106;16.688;2022-10-03T17:30:56;21.39;72.61
69464;DHT22;56665;41.106;16.688;2022-10-03T17:34:10;21.37;72.76
69464;DHT22;56665;41.106;16.688;2022-10-03T17:40:49;21.28;72.81
69464;DHT22;56665;41.106;16.688;2022-10-03T17:47:31;21.18;72.54
69464;DHT22;56665;41.106;16.688;2022-10-03T17:51:40;21.10;72.36
69464;DHT22;56665;41.106;16.688;2022-10-03T17:54:31;21.10;72.26
69464;DHT22;56665;41.106;16.688;2022-10-03T17:57:54;21.07;72.09
69464;DHT22;56665;41.106;16.688;2022-10-03T18:04:25;21.07;72.16
69464;DHT22;56665;41.106;16.688;2022-10-03T18:07:33;21.04;71.68
69464;DHT22;56665;41.106;16.688;2022-10-03T18:10:46;21.00;71.54
69464;DHT22;56665;41.106;16.688;2022-10-03T18:17:18;20.97;71.57
69464;DHT22;56665;41.106;16.688;2022-10-03T18:20:47;20.97;71.76
69464;DHT22;56665;41.106;16.688;2022-10-03T18:28:19;20.96;71.89
69464;DHT22;56665;41.106;16.688;2022-10-03T18:31:20;20.90;71.86
69464;DHT22;56665;41.106;16.688;2022-10-03T18:34:48;20.87;71.92
69464;DHT22;56665;41.106;16.688;2022-10-03T18:38:19;20.86;72.00
69464;DHT22;56665;41.106;16.688;2022-10-03T18:41:23;20.83;72.33
69464;DHT22;56665;41.106;16.688;2022-10-03T18:44:29;20.80;72.25
69464;DHT22;56665;41.106;16.688;2022-10-03T18:47:49;20.76;72.68
69464;DHT22;56665;41.106;16.688;2022-10-03T18:57:17;20.63;73.13
69464;DHT22;56665;41.106;16.688;2022-10-03T19:00:26;20.61;73.26
69464;DHT22;56665;41.106;16.688;2022-10-03T19:03:36;20.56;73.31
69464;DHT22;56665;41.106;16.688;2022-10-03T19:06:43;20.56;73.41
69464;DHT22;56665;41.106;16.688;2022-10-03T19:10:02;20.52;73.35
69464;DHT22;56665;41.106;16.688;2022-10-03T19:13:27;20.46;73.53
69464;DHT22;56665;41.106;16.688;2022-10-03T19:16:39;20.43;73.51
69464;DHT22;56665;41.106;16.688;2022-10-03T19:19:59;20.33;73.97
69464;DHT22;56665;41.106;16.688;2022-10-03T19:23:09;20.32;74.10
69464;DHT22;56665;41.106;16.688;2022-10-03T19:26:26;20.32;74.44
69464;DHT22;56665;41.106;16.688;2022-10-03T19:29:39;20.25;74.97
69464;DHT22;56665;41.106;16.688;2022-10-03T19:33:05;20.29;75.16
69464;DHT22;56665;41.106;16.688;2022-10-03T19:36:21;20.35;75.13
69464;DHT22;56665;41.106;16.688;2022-10-03T19:39:27;20.35;75.29
69464;DHT22;56665;41.106;16.688;2022-10-03T19:42:59;20.40;75.48
69464;DHT22;56665;41.106;16.688;2022-10-03T19:46:11;20.40;75.43
69464;DHT22;56665;41.106;16.688;2022-10-03T19:49:20;20.45;75.42
69464;DHT22;56665;41.106;16.688;2022-10-03T19:52:31;20.43;75.50
69464;DHT22;56665;41.106;16.688;2022-10-03T19:55:35;20.39;75.96
69464;DHT22;56665;41.106;16.688;2022-10-03T19:58:45;20.40;76.48
69464;DHT22;56665;41.106;16.688;2022-10-03T20:01:50;20.38;76.89
69464;DHT22;56665;41.106;16.688;2022-10-03T20:04:55;20.36;77.10
69464;DHT22;56665;41.106;16.688;2022-10-03T20:14:40;20.29;77.51
69464;DHT22;56665;41.106;16.688;2022-10-03T20:17:45;20.29;77.65
69464;DHT22;56665;41.106;16.688;2022-10-03T20:20:53;20.28;77.66
69464;DHT22;56665;41.106;16.688;2022-10-03T20:23:58;20.24;77.74
69464;DHT22;56665;41.106;16.688;2022-10-03T20:30:51;20.16;78.34
69464;DHT22;56665;41.106;16.688;2022-10-03T20:33:58;20.08;78.74
69464;DHT22;56665;41.106;16.688;2022-10-03T20:37:31;20.07;78.95
69464;DHT22;56665;41.106;16.688;2022-10-03T20:40:44;20.11;78.92
69464;DHT22;56665;41.106;16.688;2022-10-03T20:43:55;20.12;79.12
69464;DHT22;56665;41.106;16.688;2022-10-03T20:53:46;20.16;79.24
69464;DHT22;56665;41.106;16.688;2022-10-03T20:57:00;20.18;79.13
69464;DHT22;56665;41.106;16.688;2022-10-03T21:00:15;20.16;79.16
69464;DHT22;56665;41.106;16.688;2022-10-03T21:03:29;20.16;79.03
69464;DHT22;56665;41.106;16.688;2022-10-03T21:13:34;20.11;79.20
69464;DHT22;56665;41.106;16.688;2022-10-03T21:16:44;20.14;78.91
69464;DHT22;56665;41.106;16.688;2022-10-03T21:19:51;20.11;78.72
69464;DHT22;56665;41.106;16.688;2022-10-03T21:23:00;20.12;78.50
69464;DHT22;56665;41.106;16.688;2022-10-03T21:26:06;20.12;78.24
69464;DHT22;56665;41.106;16.688;2022-10-03T21:29:33;20.15;78.12
69464;DHT22;56665;41.106;16.688;2022-10-03T21:33:02;20.18;77.82
69464;DHT22;56665;41.106;16.688;2022-10-03T21:37:14;20.21;77.47
69464;DHT22;56665;41.106;16.688;2022-10-03T21:50:02;20.11;73.66
69464;DHT22;56665;41.106;16.688;2022-10-03T21:53:17;20.04;73.55
69464;DHT22;56665;41.106;16.688;2022-10-03T21:57:09;20.04;73.84
69464;DHT22;56665;41.106;16.688;2022-10-03T22:00:16;20.05;73.66
69464;DHT22;56665;41.106;16.688;2022-10-03T22:03:30;20.09;73.67
69464;DHT22;56665;41.106;16.688;2022-10-03T22:06:48;20.12;73.59
69464;DHT22;56665;41.106;16.688;2022-10-03T22:09:54;20.15;73.88
69464;DHT22;56665;41.106;16.688;2022-10-03T22:13:05;20.18;74.06
69464;DHT22;56665;41.106;16.688;2022-10-03T22:16:22;20.19;74.31
69464;DHT22;56665;41.106;16.688;2022-10-03T22:19:38;20.19;74.67
69464;DHT22;56665;41.106;16.688;2022-10-03T22:29:26;19.87;65.10
69464;DHT22;56665;41.106;16.688;2022-10-03T22:32:45;19.88;61.70
69464;DHT22;56665;41.106;16.688;2022-10-03T22:35:53;19.84;58.09
69464;DHT22;56665;41.106;16.688;2022-10-03T22:38:58;19.77;57.47
69464;DHT22;56665;41.106;16.688;2022-10-03T22:42:02;19.73;55.92
69464;DHT22;56665;41.106;16.688;2022-10-03T22:45:08;19.70;55.80
69464;DHT22;56665;41.106;16.688;2022-10-03T22:48:20;19.66;56.09
69464;DHT22;56665;41.106;16.688;2022-10-03T22:51:26;19.56;57.17
69464;DHT22;56665;41.106;16.688;2022-10-03T22:54:34;19.54;57.51
69464;DHT22;56665;41.106;16.688;2022-10-03T22:57:42;19.50;57.06
69464;DHT22;56665;41.106;16.688;2022-10-03T23:00:50;19.45;57.85
69464;DHT22;56665;41.106;16.688;2022-10-03T23:03:54;19.42;57.49
69464;DHT22;56665;41.106;16.688;2022-10-03T23:10:41;19.42;57.64
69464;DHT22;56665;41.106;16.688;2022-10-03T23:13:50;19.32;57.57
69464;DHT22;56665;41.106;16.688;2022-10-03T23:24:36;19.32;56.88
69464;DHT22;56665;41.106;16.688;2022-10-03T23:30:48;19.25;57.25
69464;DHT22;56665;41.106;16.688;2022-10-03T23:33:52;19.25;55.42
69464;DHT22;56665;41.106;16.688;2022-10-03T23:40:25;19.19;55.54
69464;DHT22;56665;41.106;16.688;2022-10-03T23:43:37;19.19;54.41
69464;DHT22;56665;41.106;16.688;2022-10-03T23:46:41;19.15;54.91
69464;DHT22;56665;41.106;16.688;2022-10-03T23:49:46;19.13;55.55
69464;DHT22;56665;41.106;16.688;2022-10-03T23:52:55;19.15;55.04
69464;DHT22;56665;41.106;16.688;2022-10-03T23:56:04;19.16;55.14
